createdAt,value
2019-01-11T00:00:29.056Z,1013.15
2019-01-11T00:01:29.015Z,1013.17
2019-01-11T00:02:28.947Z,1013.12
2019-01-11T00:03:28.868Z,1013.11
2019-01-11T00:04:28.831Z,1013.15
2019-01-11T00:05:28.762Z,1013.13
2019-01-11T00:06:28.690Z,1013.11
2019-01-11T00:07:28.674Z,1013.10
2019-01-11T00:08:28.579Z,1013.09
2019-01-11T00:09:28.518Z,1013.08
2019-01-11T00:10:28.473Z,1013.05
2019-01-11T00:11:28.423Z,1013.05
2019-01-11T00:12:28.391Z,1013.07
2019-01-11T00:13:28.291Z,1013.06
2019-01-11T00:14:28.237Z,1013.07
2019-01-11T00:15:28.185Z,1013.02
2019-01-11T00:16:28.116Z,1013.04
2019-01-11T00:17:28.103Z,1013.05
2019-01-11T00:18:28.005Z,1013.05
2019-01-11T00:19:27.952Z,1013.03
2019-01-11T00:20:27.892Z,1013.02
2019-01-11T00:21:27.844Z,1013.03
2019-01-11T00:22:27.842Z,1013.04
2019-01-11T00:23:27.722Z,1013.01
2019-01-11T00:24:27.652Z,1013.01
2019-01-11T00:25:27.603Z,1012.97
2019-01-11T00:26:27.553Z,1012.93
2019-01-11T00:27:27.488Z,1012.97
2019-01-11T00:28:27.479Z,1012.96
2019-01-11T00:29:27.369Z,1012.92
2019-01-11T00:30:27.326Z,1012.93
2019-01-11T00:31:27.265Z,1012.90
2019-01-11T00:32:27.206Z,1012.90
2019-01-11T00:33:27.192Z,1012.89
2019-01-11T00:34:27.079Z,1012.91
2019-01-11T00:35:27.018Z,1012.89
2019-01-11T00:36:26.960Z,1012.90
2019-01-11T00:37:26.922Z,1012.90
2019-01-11T00:38:26.874Z,1012.84
2019-01-11T00:39:26.794Z,1012.82
2019-01-11T00:40:26.731Z,1012.81
2019-01-11T00:41:26.689Z,1012.82
2019-01-11T00:42:26.625Z,1012.77
2019-01-11T00:43:26.595Z,1012.84
2019-01-11T00:44:26.518Z,1012.87
2019-01-11T00:45:26.448Z,1012.84
2019-01-11T00:46:26.395Z,1012.86
2019-01-11T00:47:26.339Z,1012.82
2019-01-11T00:48:26.338Z,1012.82
2019-01-11T00:49:26.215Z,1012.79
2019-01-11T00:50:26.151Z,1012.73
2019-01-11T00:51:26.108Z,1012.75
2019-01-11T00:52:26.046Z,1012.74
2019-01-11T00:53:26.014Z,1012.74
2019-01-11T00:54:25.945Z,1012.75
2019-01-11T00:55:25.889Z,1012.74
2019-01-11T00:56:25.820Z,1012.73
2019-01-11T00:57:25.766Z,1012.68
2019-01-11T00:58:25.757Z,1012.68
2019-01-11T00:59:25.636Z,1012.62
2019-01-11T01:00:25.585Z,1012.65
2019-01-11T01:01:25.527Z,1012.72
2019-01-11T01:02:25.474Z,1012.67
2019-01-11T01:03:25.446Z,1012.66
2019-01-11T01:04:25.367Z,1012.66
2019-01-11T01:05:25.310Z,1012.63
2019-01-11T01:06:25.251Z,1012.66
2019-01-11T01:07:25.190Z,1012.67
2019-01-11T01:08:30.512Z,1012.70
2019-01-11T01:09:25.081Z,1012.69
2019-01-11T01:10:25.024Z,1012.68
2019-01-11T01:11:24.973Z,1012.67
2019-01-11T01:12:24.919Z,1012.63
2019-01-11T01:13:24.858Z,1012.60
2019-01-11T01:14:24.786Z,1012.61
2019-01-11T01:15:24.722Z,1012.63
2019-01-11T01:16:24.679Z,1012.62
2019-01-11T01:17:24.621Z,1012.63
2019-01-11T01:18:24.564Z,1012.63
2019-01-11T01:19:24.495Z,1012.58
2019-01-11T01:20:24.433Z,1012.58
2019-01-11T01:21:24.383Z,1012.56
2019-01-11T01:22:24.318Z,1012.53
2019-01-11T01:23:24.320Z,1012.60
2019-01-11T01:24:24.199Z,1012.57
2019-01-11T01:25:24.135Z,1012.58
2019-01-11T01:26:24.125Z,1012.59
2019-01-11T01:27:24.038Z,1012.56
2019-01-11T01:28:24.010Z,1012.55
2019-01-11T01:29:23.931Z,1012.54
2019-01-11T01:30:23.859Z,1012.52
2019-01-11T01:31:23.869Z,1012.51
2019-01-11T01:32:23.734Z,1012.51
2019-01-11T01:33:23.721Z,1012.52
2019-01-11T01:34:23.645Z,1012.46
2019-01-11T01:35:23.586Z,1012.48
2019-01-11T01:36:23.526Z,1012.47
2019-01-11T01:37:23.494Z,1012.45
2019-01-11T01:38:23.475Z,1012.49
2019-01-11T01:39:23.426Z,1012.48
2019-01-11T01:40:23.309Z,1012.49
2019-01-11T01:41:23.317Z,1012.43
2019-01-11T01:42:23.173Z,1012.45
2019-01-11T01:43:23.154Z,1012.43
2019-01-11T01:44:23.130Z,1012.39
2019-01-11T01:45:22.988Z,1012.39
2019-01-11T01:46:22.943Z,1012.40
2019-01-11T01:47:22.861Z,1012.44
2019-01-11T01:48:22.817Z,1012.43
2019-01-11T01:49:26.558Z,1012.44
2019-01-11T01:50:22.699Z,1012.41
2019-01-11T01:51:22.631Z,1012.40
2019-01-11T01:52:22.589Z,1012.39
2019-01-11T01:53:22.555Z,1012.40
2019-01-11T01:54:22.539Z,1012.38
2019-01-11T01:55:22.400Z,1012.36
2019-01-11T01:56:22.369Z,1012.37
2019-01-11T01:57:22.304Z,1012.35
2019-01-11T01:58:22.234Z,1012.32
2019-01-11T01:59:22.265Z,1012.32
2019-01-11T02:00:22.139Z,1012.30
2019-01-11T02:01:22.061Z,1012.29
2019-01-11T02:02:21.999Z,1012.31
2019-01-11T02:03:21.978Z,1012.30
2019-01-11T02:04:21.941Z,1012.27
2019-01-11T02:05:21.882Z,1012.33
2019-01-11T02:06:21.760Z,1012.34
2019-01-11T02:07:21.743Z,1012.31
2019-01-11T02:08:21.685Z,1012.34
2019-01-11T02:09:21.671Z,1012.29
2019-01-11T02:10:21.568Z,1012.34
2019-01-11T02:11:21.479Z,1012.34
2019-01-11T02:12:21.420Z,1012.35
2019-01-11T02:13:21.371Z,1012.30
2019-01-11T02:14:21.326Z,1012.35
2019-01-11T02:15:21.245Z,1012.32
2019-01-11T02:16:21.213Z,1012.28
2019-01-11T02:17:21.152Z,1012.25
2019-01-11T02:18:21.101Z,1012.22
2019-01-11T02:19:21.069Z,1012.25
2019-01-11T02:20:20.977Z,1012.24
2019-01-11T02:21:20.954Z,1012.25
2019-01-11T02:22:20.918Z,1012.22
2019-01-11T02:23:20.799Z,1012.24
2019-01-11T02:24:20.774Z,1012.23
2019-01-11T02:25:20.728Z,1012.23
2019-01-11T02:26:20.633Z,1012.20
2019-01-11T02:27:20.552Z,1012.21
2019-01-11T02:28:20.496Z,1012.19
2019-01-11T02:29:20.475Z,1012.17
2019-01-11T02:30:20.438Z,1012.18
2019-01-11T02:31:20.336Z,1012.21
2019-01-11T02:32:20.348Z,1012.19
2019-01-11T02:33:24.870Z,1012.18
2019-01-11T02:34:20.171Z,1012.16
2019-01-11T02:35:20.139Z,1012.14
2019-01-11T02:36:20.064Z,1012.14
2019-01-11T02:37:20.000Z,1012.13
2019-01-11T02:38:19.924Z,1012.08
2019-01-11T02:39:19.886Z,1012.11
2019-01-11T02:40:19.846Z,1012.07
2019-01-11T02:41:19.751Z,1012.07
2019-01-11T02:42:19.693Z,1012.05
2019-01-11T02:43:19.732Z,1012.02
2019-01-11T02:44:19.616Z,1012.02
2019-01-11T02:45:19.641Z,1011.97
2019-01-11T02:46:19.548Z,1011.96
2019-01-11T02:47:19.481Z,1011.97
2019-01-11T02:48:19.362Z,1011.91
2019-01-11T02:49:19.317Z,1011.89
2019-01-11T02:50:19.273Z,1011.88
2019-01-11T02:51:19.529Z,1011.82
2019-01-11T02:52:19.109Z,1011.87
2019-01-11T02:53:19.093Z,1011.83
2019-01-11T02:54:19.022Z,1011.85
2019-01-11T02:55:18.970Z,1011.83
2019-01-11T02:56:18.899Z,1011.82
2019-01-11T02:57:18.823Z,1011.82
2019-01-11T02:58:18.774Z,1011.81
2019-01-11T02:59:18.745Z,1011.83
2019-01-11T03:00:18.708Z,1011.79
2019-01-11T03:01:18.601Z,1011.77
2019-01-11T03:02:18.540Z,1011.83
2019-01-11T03:03:18.473Z,1011.82
2019-01-11T03:04:18.426Z,1011.78
2019-01-11T03:05:18.644Z,1011.79
2019-01-11T03:06:18.327Z,1011.78
2019-01-11T03:07:18.647Z,1011.79
2019-01-11T03:08:18.197Z,1011.76
2019-01-11T03:09:18.146Z,1011.80
2019-01-11T03:10:18.110Z,1011.80
2019-01-11T03:11:18.027Z,1011.84
2019-01-11T03:12:17.970Z,1011.81
2019-01-11T03:13:17.909Z,1011.78
2019-01-11T03:14:17.857Z,1011.83
2019-01-11T03:15:17.818Z,1011.80
2019-01-11T03:16:17.745Z,1011.83
2019-01-11T03:17:17.671Z,1011.82
2019-01-11T03:18:17.620Z,1011.79
2019-01-11T03:19:17.555Z,1011.81
2019-01-11T03:20:17.548Z,1011.80
2019-01-11T03:21:17.444Z,1011.77
2019-01-11T03:22:17.395Z,1011.78
2019-01-11T03:23:17.350Z,1011.70
2019-01-11T03:24:17.282Z,1011.71
2019-01-11T03:25:17.250Z,1011.70
2019-01-11T03:26:17.381Z,1011.65
2019-01-11T03:27:17.112Z,1011.67
2019-01-11T03:28:17.115Z,1011.63
2019-01-11T03:29:16.980Z,1011.63
2019-01-11T03:30:17.048Z,1011.60
2019-01-11T03:31:16.863Z,1011.61
2019-01-11T03:32:16.826Z,1011.60
2019-01-11T03:33:16.755Z,1011.57
2019-01-11T03:34:16.696Z,1011.51
2019-01-11T03:35:16.674Z,1011.52
2019-01-11T03:36:16.583Z,1011.47
2019-01-11T03:37:16.523Z,1011.42
2019-01-11T03:38:16.466Z,1011.45
2019-01-11T03:39:16.434Z,1011.46
2019-01-11T03:40:16.372Z,1011.43
2019-01-11T03:41:16.335Z,1011.41
2019-01-11T03:42:16.240Z,1011.37
2019-01-11T03:43:16.188Z,1011.39
2019-01-11T03:44:16.125Z,1011.35
2019-01-11T03:45:16.074Z,1011.35
2019-01-11T03:46:16.055Z,1011.40
2019-01-11T03:47:15.949Z,1011.36
2019-01-11T03:48:15.898Z,1011.36
2019-01-11T03:49:15.849Z,1011.34
2019-01-11T03:50:15.801Z,1011.31
2019-01-11T03:51:15.736Z,1011.33
2019-01-11T03:52:15.674Z,1011.31
2019-01-11T03:53:15.615Z,1011.31
2019-01-11T03:54:15.549Z,1011.29
2019-01-11T03:55:15.503Z,1011.28
2019-01-11T03:56:15.468Z,1011.31
2019-01-11T03:57:15.380Z,1011.30
2019-01-11T03:58:15.325Z,1011.27
2019-01-11T03:59:15.282Z,1011.22
2019-01-11T04:00:15.202Z,1011.25
2019-01-11T04:01:15.200Z,1011.22
2019-01-11T04:02:15.099Z,1011.19
2019-01-11T04:03:15.051Z,1011.15
2019-01-11T04:04:15.002Z,1011.12
2019-01-11T04:05:14.917Z,1011.14
2019-01-11T04:06:14.906Z,1011.19
2019-01-11T04:07:14.793Z,1011.19
2019-01-11T04:08:14.753Z,1011.17
2019-01-11T04:09:14.693Z,1011.18
2019-01-11T04:10:14.644Z,1011.15
2019-01-11T04:11:14.599Z,1011.14
2019-01-11T04:12:14.521Z,1011.10
2019-01-11T04:13:14.532Z,1011.08
2019-01-11T04:14:14.412Z,1011.09
2019-01-11T04:15:14.324Z,1011.15
2019-01-11T04:16:14.310Z,1011.11
2019-01-11T04:17:14.355Z,1011.08
2019-01-11T04:18:14.255Z,1011.09
2019-01-11T04:19:14.104Z,1011.05
2019-01-11T04:20:14.050Z,1011.12
2019-01-11T04:21:14.020Z,1011.12
2019-01-11T04:22:13.938Z,1011.11
2019-01-11T04:23:13.907Z,1011.14
2019-01-11T04:24:13.837Z,1011.16
2019-01-11T04:25:13.849Z,1011.19
2019-01-11T04:26:13.733Z,1011.21
2019-01-11T04:27:13.639Z,1011.21
2019-01-11T04:28:13.596Z,1011.21
2019-01-11T04:29:13.624Z,1011.13
2019-01-11T04:30:13.484Z,1011.10
2019-01-11T04:31:13.441Z,1011.09
2019-01-11T04:32:13.364Z,1011.10
2019-01-11T04:33:13.329Z,1011.16
2019-01-11T04:34:13.236Z,1011.20
2019-01-11T04:35:13.181Z,1011.16
2019-01-11T04:36:13.162Z,1011.12
2019-01-11T04:37:13.107Z,1011.16
2019-01-11T04:38:13.111Z,1011.14
2019-01-11T04:39:13.154Z,1011.13
2019-01-11T04:40:13.138Z,1011.13
2019-01-11T04:41:13.056Z,1011.10
2019-01-11T04:42:13.162Z,1011.08
2019-01-11T04:43:13.555Z,1011.10
2019-01-11T04:44:12.725Z,1011.14
2019-01-11T04:45:12.611Z,1011.16
2019-01-11T04:46:12.552Z,1011.12
2019-01-11T04:47:12.520Z,1011.11
2019-01-11T04:48:12.448Z,1011.07
2019-01-11T04:49:12.378Z,1011.08
2019-01-11T04:50:12.339Z,1011.00
2019-01-11T04:51:12.263Z,1010.95
2019-01-11T04:52:12.229Z,1010.90
2019-01-11T04:53:12.148Z,1010.94
2019-01-11T04:54:12.103Z,1010.90
2019-01-11T04:55:12.046Z,1010.87
2019-01-11T04:56:11.983Z,1010.86
2019-01-11T04:57:11.960Z,1010.90
2019-01-11T04:58:11.863Z,1010.88
2019-01-11T04:59:11.808Z,1010.90
2019-01-11T05:00:11.760Z,1010.91
2019-01-11T05:01:11.801Z,1010.91
2019-01-11T05:02:11.725Z,1010.86
2019-01-11T05:03:11.635Z,1010.84
2019-01-11T05:04:11.544Z,1010.81
2019-01-11T05:05:11.470Z,1010.83
2019-01-11T05:06:11.517Z,1010.78
2019-01-11T05:07:11.784Z,1010.77
2019-01-11T05:08:11.319Z,1010.80
2019-01-11T05:09:11.376Z,1010.83
2019-01-11T05:10:11.252Z,1010.82
2019-01-11T05:11:11.194Z,1010.84
2019-01-11T05:12:11.145Z,1010.84
2019-01-11T05:13:11.110Z,1010.83
2019-01-11T05:14:11.003Z,1010.86
2019-01-11T05:15:10.893Z,1010.87
2019-01-11T05:16:10.857Z,1010.83
2019-01-11T05:17:10.856Z,1010.82
2019-01-11T05:18:10.707Z,1010.80
2019-01-11T05:19:10.748Z,1010.79
2019-01-11T05:20:16.615Z,1010.79
2019-01-11T05:21:10.535Z,1010.77
2019-01-11T05:22:10.612Z,1010.76
2019-01-11T05:23:10.473Z,1010.72
2019-01-11T05:24:10.363Z,1010.76
2019-01-11T05:25:10.403Z,1010.75
2019-01-11T05:26:10.375Z,1010.73
2019-01-11T05:27:10.447Z,1010.71
2019-01-11T05:28:10.186Z,1010.70
2019-01-11T05:29:10.091Z,1010.76
2019-01-11T05:30:10.056Z,1010.73
2019-01-11T05:31:09.974Z,1010.73
2019-01-11T05:32:10.011Z,1010.75
2019-01-11T05:33:10.102Z,1010.76
2019-01-11T05:34:09.879Z,1010.75
2019-01-11T05:35:09.756Z,1010.76
2019-01-11T05:36:09.732Z,1010.75
2019-01-11T05:37:09.661Z,1010.77
2019-01-11T05:38:09.639Z,1010.75
2019-01-11T05:39:09.544Z,1010.73
2019-01-11T05:40:09.463Z,1010.67
2019-01-11T05:41:09.426Z,1010.67
2019-01-11T05:42:09.409Z,1010.69
2019-01-11T05:43:09.405Z,1010.67
2019-01-11T05:44:09.836Z,1010.67
2019-01-11T05:45:09.197Z,1010.63
2019-01-11T05:46:09.098Z,1010.64
2019-01-11T05:47:09.053Z,1010.65
2019-01-11T05:48:09.076Z,1010.66
2019-01-11T05:49:08.976Z,1010.68
2019-01-11T05:50:08.899Z,1010.64
2019-01-11T05:51:08.820Z,1010.66
2019-01-11T05:52:08.813Z,1010.68
2019-01-11T05:53:08.730Z,1010.66
2019-01-11T05:54:08.681Z,1010.67
2019-01-11T05:55:08.731Z,1010.68
2019-01-11T05:56:08.551Z,1010.71
2019-01-11T05:57:08.468Z,1010.65
2019-01-11T05:58:08.438Z,1010.67
2019-01-11T05:59:08.424Z,1010.63
2019-01-11T06:00:08.319Z,1010.62
2019-01-11T06:01:08.275Z,1010.63
2019-01-11T06:02:08.187Z,1010.63
2019-01-11T06:03:08.162Z,1010.61
2019-01-11T06:04:08.066Z,1010.60
2019-01-11T06:05:08.009Z,1010.58
2019-01-11T06:06:07.983Z,1010.60
2019-01-11T06:07:07.914Z,1010.58
2019-01-11T06:08:07.908Z,1010.60
2019-01-11T06:09:07.787Z,1010.61
2019-01-11T06:10:07.722Z,1010.61
2019-01-11T06:11:07.661Z,1010.62
2019-01-11T06:12:07.603Z,1010.63
2019-01-11T06:13:07.556Z,1010.62
2019-01-11T06:14:07.525Z,1010.60
2019-01-11T06:15:07.478Z,1010.63
2019-01-11T06:16:07.394Z,1010.63
2019-01-11T06:17:07.338Z,1010.62
2019-01-11T06:18:07.268Z,1010.60
2019-01-11T06:19:07.231Z,1010.60
2019-01-11T06:20:07.148Z,1010.63
2019-01-11T06:21:07.111Z,1010.56
2019-01-11T06:22:07.075Z,1010.58
2019-01-11T06:23:06.988Z,1010.57
2019-01-11T06:24:06.951Z,1010.57
2019-01-11T06:25:06.862Z,1010.57
2019-01-11T06:26:06.804Z,1010.59
2019-01-11T06:27:06.751Z,1010.54
2019-01-11T06:28:06.695Z,1010.54
2019-01-11T06:29:06.660Z,1010.50
2019-01-11T06:30:06.571Z,1010.56
2019-01-11T06:31:06.519Z,1010.54
2019-01-11T06:32:06.458Z,1010.55
2019-01-11T06:33:06.401Z,1010.55
2019-01-11T06:34:06.382Z,1010.51
2019-01-11T06:35:06.305Z,1010.55
2019-01-11T06:36:06.225Z,1010.54
2019-01-11T06:37:06.179Z,1010.57
2019-01-11T06:38:06.138Z,1010.55
2019-01-11T06:39:06.078Z,1010.56
2019-01-11T06:40:06.020Z,1010.56
2019-01-11T06:41:05.943Z,1010.53
2019-01-11T06:42:05.888Z,1010.52
2019-01-11T06:43:05.829Z,1010.53
2019-01-11T06:44:05.796Z,1010.52
2019-01-11T06:45:05.726Z,1010.48
2019-01-11T06:46:05.672Z,1010.50
2019-01-11T06:47:05.637Z,1010.45
2019-01-11T06:48:05.556Z,1010.49
2019-01-11T06:49:05.518Z,1010.52
2019-01-11T06:50:05.466Z,1010.52
2019-01-11T06:51:05.385Z,1010.52
2019-01-11T06:52:05.314Z,1010.55
2019-01-11T06:53:05.265Z,1010.55
2019-01-11T06:54:05.230Z,1010.56
2019-01-11T06:55:05.169Z,1010.52
2019-01-11T06:56:05.086Z,1010.50
2019-01-11T06:57:05.027Z,1010.53
2019-01-11T06:58:04.980Z,1010.51
2019-01-11T06:59:04.916Z,1010.51
2019-01-11T07:00:04.911Z,1010.53
2019-01-11T07:01:04.799Z,1010.54
2019-01-11T07:02:04.774Z,1010.54
2019-01-11T07:03:04.687Z,1010.54
2019-01-11T07:04:04.626Z,1010.57
2019-01-11T07:05:04.602Z,1010.57
2019-01-11T07:06:04.519Z,1010.59
2019-01-11T07:07:04.468Z,1010.56
2019-01-11T07:08:04.441Z,1010.55
2019-01-11T07:09:04.354Z,1010.52
2019-01-11T07:10:04.327Z,1010.56
2019-01-11T07:11:04.230Z,1010.59
2019-01-11T07:12:04.186Z,1010.55
2019-01-11T07:13:04.110Z,1010.56
2019-01-11T07:14:04.052Z,1010.55
2019-01-11T07:15:04.023Z,1010.50
2019-01-11T07:16:03.961Z,1010.49
2019-01-11T07:17:03.888Z,1010.51
2019-01-11T07:18:03.847Z,1010.50
2019-01-11T07:19:03.777Z,1010.48
2019-01-11T07:20:05.726Z,1010.45
2019-01-11T07:21:03.694Z,1010.42
2019-01-11T07:22:03.632Z,1010.43
2019-01-11T07:23:03.538Z,1010.43
2019-01-11T07:24:03.488Z,1010.39
2019-01-11T07:25:03.449Z,1010.43
2019-01-11T07:26:03.375Z,1010.42
2019-01-11T07:27:03.311Z,1010.45
2019-01-11T07:28:03.254Z,1010.48
2019-01-11T07:29:03.200Z,1010.47
2019-01-11T07:30:03.161Z,1010.49
2019-01-11T07:31:03.093Z,1010.52
2019-01-11T07:32:03.028Z,1010.56
2019-01-11T07:33:02.971Z,1010.59
2019-01-11T07:34:02.924Z,1010.55
2019-01-11T07:35:02.874Z,1010.50
2019-01-11T07:36:02.797Z,1010.51
2019-01-11T07:37:02.737Z,1010.47
2019-01-11T07:38:02.681Z,1010.50
2019-01-11T07:39:02.623Z,1010.47
2019-01-11T07:40:02.614Z,1010.48
2019-01-11T07:41:02.507Z,1010.50
2019-01-11T07:42:02.478Z,1010.48
2019-01-11T07:43:02.416Z,1010.51
2019-01-11T07:44:02.345Z,1010.55
2019-01-11T07:45:02.280Z,1010.52
2019-01-11T07:46:02.268Z,1010.55
2019-01-11T07:47:02.172Z,1010.54
2019-01-11T07:48:02.120Z,1010.54
2019-01-11T07:49:02.054Z,1010.58
2019-01-11T07:50:02.001Z,1010.53
2019-01-11T07:51:01.969Z,1010.55
2019-01-11T07:52:01.882Z,1010.56
2019-01-11T07:53:01.827Z,1010.54
2019-01-11T07:54:01.769Z,1010.53
2019-01-11T07:55:01.713Z,1010.54
2019-01-11T07:56:01.671Z,1010.50
2019-01-11T07:57:01.597Z,1010.49
2019-01-11T07:58:01.540Z,1010.49
2019-01-11T07:59:01.482Z,1010.49
2019-01-11T08:00:01.446Z,1010.51
2019-01-11T08:01:01.404Z,1010.53
2019-01-11T08:02:01.327Z,1010.50
2019-01-11T08:03:01.279Z,1010.53
2019-01-11T08:04:01.200Z,1010.53
2019-01-11T08:05:01.142Z,1010.55
2019-01-11T08:06:01.108Z,1010.57
2019-01-11T08:07:01.023Z,1010.56
2019-01-11T08:08:00.967Z,1010.53
2019-01-11T08:09:00.911Z,1010.55
2019-01-11T08:10:00.854Z,1010.56
2019-01-11T08:11:00.841Z,1010.56
2019-01-11T08:12:00.743Z,1010.57
2019-01-11T08:13:00.684Z,1010.54
2019-01-11T08:14:00.630Z,1010.52
2019-01-11T08:15:00.587Z,1010.53
2019-01-11T08:16:00.535Z,1010.54
2019-01-11T08:17:00.456Z,1010.52
2019-01-11T08:18:00.404Z,1010.55
2019-01-11T08:19:00.338Z,1010.52
2019-01-11T08:20:00.283Z,1010.51
2019-01-11T08:21:00.256Z,1010.54
2019-01-11T08:22:00.171Z,1010.53
2019-01-11T08:23:00.115Z,1010.52
2019-01-11T08:24:00.057Z,1010.52
2019-01-11T08:25:00.000Z,1010.52
2019-01-11T08:25:59.965Z,1010.51
2019-01-11T08:26:59.885Z,1010.48
2019-01-11T08:27:59.830Z,1010.47
2019-01-11T08:28:59.775Z,1010.50
2019-01-11T08:29:59.721Z,1010.49
2019-01-11T08:30:59.685Z,1010.51
2019-01-11T08:31:59.601Z,1010.47
2019-01-11T08:32:59.542Z,1010.49
2019-01-11T08:33:59.492Z,1010.50
2019-01-11T08:34:59.429Z,1010.46
2019-01-11T08:35:59.418Z,1010.48
2019-01-11T08:36:59.319Z,1010.50
2019-01-11T08:37:59.264Z,1010.49
2019-01-11T08:38:59.206Z,1010.51
2019-01-11T08:39:59.151Z,1010.45
2019-01-11T08:40:59.099Z,1010.44
2019-01-11T08:41:59.074Z,1010.43
2019-01-11T08:42:58.964Z,1010.41
2019-01-11T08:43:58.915Z,1010.39
2019-01-11T08:44:58.863Z,1010.41
2019-01-11T08:45:58.805Z,1010.38
2019-01-11T08:46:58.782Z,1010.39
2019-01-11T08:47:58.705Z,1010.38
2019-01-11T08:48:58.631Z,1010.33
2019-01-11T08:49:58.587Z,1010.35
2019-01-11T08:51:02.661Z,1010.33
2019-01-11T08:51:58.488Z,1010.39
2019-01-11T08:52:58.404Z,1010.37
2019-01-11T08:53:58.353Z,1010.35
2019-01-11T08:54:58.291Z,1010.37
2019-01-11T08:55:58.249Z,1010.37
2019-01-11T08:56:58.225Z,1010.39
2019-01-11T08:57:58.139Z,1010.39
2019-01-11T08:58:58.066Z,1010.42
2019-01-11T08:59:58.018Z,1010.40
2019-01-11T09:00:57.962Z,1010.39
2019-01-11T09:01:57.967Z,1010.39
2019-01-11T09:02:57.841Z,1010.39
2019-01-11T09:03:57.775Z,1010.39
2019-01-11T09:04:57.721Z,1010.37
2019-01-11T09:05:57.665Z,1010.43
2019-01-11T09:06:57.632Z,1010.41
2019-01-11T09:07:57.553Z,1010.41
2019-01-11T09:08:57.497Z,1010.43
2019-01-11T09:09:57.442Z,1010.37
2019-01-11T09:10:57.381Z,1010.40
2019-01-11T09:11:57.361Z,1010.42
2019-01-11T09:12:57.265Z,1010.41
2019-01-11T09:13:57.210Z,1010.41
2019-01-11T09:14:57.159Z,1010.43
2019-01-11T09:15:57.099Z,1010.39
2019-01-11T09:16:57.062Z,1010.39
2019-01-11T09:17:57.003Z,1010.36
2019-01-11T09:18:56.929Z,1010.37
2019-01-11T09:19:56.881Z,1010.37
2019-01-11T09:20:56.825Z,1010.36
2019-01-11T09:21:56.779Z,1010.36
2019-01-11T09:22:56.690Z,1010.35
2019-01-11T09:23:56.641Z,1010.32
2019-01-11T09:24:56.584Z,1010.35
2019-01-11T09:25:56.524Z,1010.36
2019-01-11T09:26:56.500Z,1010.28
2019-01-11T09:27:56.435Z,1010.30
2019-01-11T09:28:56.369Z,1010.29
2019-01-11T09:29:56.329Z,1010.30
2019-01-11T09:30:56.241Z,1010.30
2019-01-11T09:31:57.629Z,1010.27
2019-01-11T09:32:56.153Z,1010.26
2019-01-11T09:33:56.072Z,1010.24
2019-01-11T09:34:56.020Z,1010.21
2019-01-11T09:35:55.962Z,1010.22
2019-01-11T09:36:55.903Z,1010.21
2019-01-11T09:37:55.877Z,1010.23
2019-01-11T09:38:55.787Z,1010.22
2019-01-11T09:39:55.780Z,1010.20
2019-01-11T09:40:55.728Z,1010.26
2019-01-11T09:41:55.620Z,1010.28
2019-01-11T09:42:55.591Z,1010.27
2019-01-11T09:43:55.520Z,1010.31
2019-01-11T09:44:55.470Z,1010.28
2019-01-11T09:45:55.413Z,1010.31
2019-01-11T09:46:55.342Z,1010.25
2019-01-11T09:47:55.328Z,1010.30
2019-01-11T09:48:55.257Z,1010.29
2019-01-11T09:49:55.169Z,1010.28
2019-01-11T09:50:55.146Z,1010.28
2019-01-11T09:51:55.051Z,1010.30
2019-01-11T09:52:55.025Z,1010.26
2019-01-11T09:53:54.950Z,1010.29
2019-01-11T09:54:54.902Z,1010.32
2019-01-11T09:55:54.863Z,1010.29
2019-01-11T09:56:54.770Z,1010.26
2019-01-11T09:57:54.797Z,1010.25
2019-01-11T09:58:54.664Z,1010.27
2019-01-11T09:59:54.614Z,1010.28
2019-01-11T10:00:59.144Z,1010.24
2019-01-11T10:01:54.521Z,1010.25
2019-01-11T10:02:54.449Z,1010.25
2019-01-11T10:03:54.373Z,1010.26
2019-01-11T10:04:54.334Z,1010.27
2019-01-11T10:05:54.257Z,1010.27
2019-01-11T10:06:54.223Z,1010.22
2019-01-11T10:07:54.173Z,1010.22
2019-01-11T10:08:54.091Z,1010.19
2019-01-11T10:09:54.032Z,1010.21
2019-01-11T10:10:54.016Z,1010.15
2019-01-11T10:11:53.920Z,1010.18
2019-01-11T10:12:53.968Z,1010.16
2019-01-11T10:13:53.832Z,1010.19
2019-01-11T10:14:53.749Z,1010.18
2019-01-11T10:15:53.705Z,1010.18
2019-01-11T10:16:53.648Z,1010.18
2019-01-11T10:17:53.616Z,1010.18
2019-01-11T10:18:53.533Z,1010.17
2019-01-11T10:19:53.469Z,1010.15
2019-01-11T10:20:53.406Z,1010.19
2019-01-11T10:21:53.351Z,1010.17
2019-01-11T10:22:53.322Z,1010.15
2019-01-11T10:23:53.252Z,1010.12
2019-01-11T10:24:53.186Z,1010.11
2019-01-11T10:25:53.126Z,1010.10
2019-01-11T10:26:53.069Z,1010.11
2019-01-11T10:27:53.046Z,1010.10
2019-01-11T10:28:52.955Z,1010.10
2019-01-11T10:29:52.896Z,1010.08
2019-01-11T10:30:52.849Z,1010.08
2019-01-11T10:31:52.788Z,1010.07
2019-01-11T10:32:52.786Z,1010.07
2019-01-11T10:33:52.679Z,1010.10
2019-01-11T10:34:52.648Z,1010.08
2019-01-11T10:35:52.565Z,1010.09
2019-01-11T10:36:52.502Z,1010.09
2019-01-11T10:37:52.466Z,1010.04
2019-01-11T10:38:52.423Z,1010.08
2019-01-11T10:39:52.366Z,1010.05
2019-01-11T10:40:52.294Z,1010.02
2019-01-11T10:41:52.225Z,1010.02
2019-01-11T10:42:52.167Z,1009.99
2019-01-11T10:43:52.135Z,1009.96
2019-01-11T10:44:52.056Z,1009.98
2019-01-11T10:45:51.996Z,1009.97
2019-01-11T10:46:51.939Z,1009.96
2019-01-11T10:47:51.925Z,1009.96
2019-01-11T10:48:51.896Z,1009.97
2019-01-11T10:49:51.812Z,1009.94
2019-01-11T10:50:51.906Z,1009.92
2019-01-11T10:51:51.656Z,1009.91
2019-01-11T10:52:51.608Z,1009.96
2019-01-11T10:53:51.563Z,1009.91
2019-01-11T10:54:51.487Z,1009.91
2019-01-11T10:55:51.427Z,1009.95
2019-01-11T10:56:51.376Z,1009.90
2019-01-11T10:57:51.328Z,1009.88
2019-01-11T10:58:51.301Z,1009.85
2019-01-11T10:59:51.241Z,1009.86
2019-01-11T11:00:51.176Z,1009.82
2019-01-11T11:01:51.094Z,1009.80
2019-01-11T11:02:51.045Z,1009.77
2019-01-11T11:03:51.037Z,1009.75
2019-01-11T11:04:50.928Z,1009.71
2019-01-11T11:05:50.864Z,1009.73
2019-01-11T11:06:50.829Z,1009.68
2019-01-11T11:07:50.760Z,1009.69
2019-01-11T11:08:50.721Z,1009.69
2019-01-11T11:09:50.657Z,1009.68
2019-01-11T11:10:50.623Z,1009.64
2019-01-11T11:11:50.525Z,1009.63
2019-01-11T11:12:50.489Z,1009.65
2019-01-11T11:13:50.466Z,1009.58
2019-01-11T11:14:50.362Z,1009.58
2019-01-11T11:15:50.349Z,1009.57
2019-01-11T11:16:50.247Z,1009.57
2019-01-11T11:17:50.202Z,1009.55
2019-01-11T11:18:50.189Z,1009.53
2019-01-11T11:19:50.082Z,1009.50
2019-01-11T11:20:50.033Z,1009.52
2019-01-11T11:21:49.981Z,1009.48
2019-01-11T11:22:49.947Z,1009.48
2019-01-11T11:23:53.914Z,1009.54
2019-01-11T11:24:49.840Z,1009.44
2019-01-11T11:25:49.774Z,1009.49
2019-01-11T11:26:49.687Z,1009.48
2019-01-11T11:27:49.658Z,1009.44
2019-01-11T11:28:49.584Z,1009.45
2019-01-11T11:29:49.542Z,1009.42
2019-01-11T11:30:50.996Z,1009.41
2019-01-11T11:31:49.434Z,1009.44
2019-01-11T11:32:49.360Z,1009.44
2019-01-11T11:33:49.300Z,1009.41
2019-01-11T11:34:49.290Z,1009.41
2019-01-11T11:35:49.179Z,1009.35
2019-01-11T11:36:49.130Z,1009.35
2019-01-11T11:37:49.076Z,1009.32
2019-01-11T11:38:49.013Z,1009.31
2019-01-11T11:39:48.981Z,1009.32
2019-01-11T11:40:48.911Z,1009.31
2019-01-11T11:41:48.854Z,1009.27
2019-01-11T11:42:49.302Z,1009.28
2019-01-11T11:43:48.790Z,1009.25
2019-01-11T11:44:48.747Z,1009.25
2019-01-11T11:45:48.622Z,1009.24
2019-01-11T11:46:48.567Z,1009.21
2019-01-11T11:47:48.513Z,1009.17
2019-01-11T11:48:48.455Z,1009.18
2019-01-11T11:49:48.445Z,1009.14
2019-01-11T11:50:48.345Z,1009.10
2019-01-11T11:51:48.286Z,1009.13
2019-01-11T11:52:48.252Z,1009.13
2019-01-11T11:53:48.181Z,1009.11
2019-01-11T11:54:48.151Z,1009.14
2019-01-11T11:55:48.058Z,1009.11
2019-01-11T11:56:48.003Z,1009.14
2019-01-11T11:57:47.960Z,1009.13
2019-01-11T11:58:47.888Z,1009.13
2019-01-11T11:59:47.981Z,1009.11
2019-01-11T12:00:47.781Z,1009.07
2019-01-11T12:01:47.750Z,1009.05
2019-01-11T12:02:47.666Z,1009.08
2019-01-11T12:03:47.645Z,1009.03
2019-01-11T12:04:47.584Z,1009.02